Time;durP1;ratioP1;P1;durP2;ratioP2;P2;SDS_P1;SDS_P2;PMS_P1;PMS_P2;Temp;Humidity;BMP_temperature;BMP_pressure;BME280_temperature;BME280_humidity;BME280_pressure;Samples;Min_cycle;Max_cycle;Signal;HPM_P1;HPM_P2
2024/04/14 00:01:51;;;;;;;;;56.75;35.00;;;;;;;;10446388;28;42989;-63
2024/04/14 00:06:55;;;;;;;;;53.50;32.25;;;;;;;;10452117;28;43845;-64
2024/04/14 00:11:58;;;;;;;;;50.75;31.00;;;;;;;;10491261;27;43673;-63
2024/04/14 00:17:03;;;;;;;;;51.00;33.75;;;;;;;;10486716;27;43883;-63
2024/04/14 00:22:07;;;;;;;;;53.00;32.75;;;;;;;;10487040;27;43015;-63
2024/04/14 00:27:11;;;;;;;;;52.75;33.00;;;;;;;;10502224;28;43774;-63
2024/04/14 00:32:14;;;;;;;;;49.50;32.50;;;;;;;;10475756;28;44530;-64
2024/04/14 00:37:18;;;;;;;;;51.25;33.75;;;;;;;;10509763;27;43668;-65
2024/04/14 00:42:22;;;;;;;;;48.75;31.50;;;;;;;;10494047;27;43025;-63
2024/04/14 00:47:26;;;;;;;;;50.50;33.00;;;;;;;;10491748;28;43040;-64
2024/04/14 00:52:31;;;;;;;;;52.50;35.25;;;;;;;;10492100;28;43652;-62
2024/04/14 00:57:34;;;;;;;;;45.75;31.50;;;;;;;;10491756;27;42923;-62
2024/04/14 01:02:41;;;;;;;;;51.75;33.25;;;;;;;;10492225;28;43472;-63
2024/04/14 01:07:45;;;;;;;;;52.50;34.00;;;;;;;;10477299;27;43512;-63
2024/04/14 01:12:49;;;;;;;;;52.50;34.00;;;;;;;;10446253;28;43616;-66
2024/04/14 01:17:52;;;;;;;;;52.50;31.75;;;;;;;;10449282;28;44409;-68
2024/04/14 01:22:56;;;;;;;;;47.25;31.75;;;;;;;;10449136;28;43177;-61
2024/04/14 01:28:01;;;;;;;;;54.00;34.00;;;;;;;;10445380;28;43112;-65
2024/04/14 01:33:04;;;;;;;;;51.00;35.50;;;;;;;;10459199;28;43100;-62
2024/04/14 01:38:09;;;;;;;;;49.25;32.50;;;;;;;;10452794;28;43145;-63
2024/04/14 01:43:13;;;;;;;;;52.75;35.25;;;;;;;;10456543;28;43030;-63
2024/04/14 01:48:16;;;;;;;;;52.75;33.50;;;;;;;;10451591;28;43474;-64
2024/04/14 01:53:19;;;;;;;;;52.00;34.75;;;;;;;;10438578;28;42979;-63
2024/04/14 01:58:24;;;;;;;;;52.25;33.25;;;;;;;;10437099;28;43652;-63
2024/04/14 02:03:28;;;;;;;;;51.75;34.50;;;;;;;;10435490;28;43004;-65
2024/04/14 02:08:32;;;;;;;;;54.50;34.75;;;;;;;;10459223;28;44317;-64
2024/04/14 02:13:36;;;;;;;;;52.25;33.75;;;;;;;;10452937;28;43165;-64
2024/04/14 02:18:40;;;;;;;;;52.75;35.75;;;;;;;;10443594;28;43310;-64
2024/04/14 02:23:44;;;;;;;;;56.00;35.50;;;;;;;;10447685;28;43562;-65
2024/04/14 02:28:48;;;;;;;;;52.50;33.50;;;;;;;;10415997;28;43029;-65
2024/04/14 02:33:51;;;;;;;;;52.25;32.50;;;;;;;;10432337;28;42985;-65
2024/04/14 02:38:55;;;;;;;;;52.25;33.75;;;;;;;;10437163;28;43046;-65
2024/04/14 02:44:00;;;;;;;;;53.25;31.50;;;;;;;;10456881;28;43531;-65
2024/04/14 02:49:05;;;;;;;;;57.50;37.50;;;;;;;;10456995;28;43506;-64
2024/04/14 02:54:09;;;;;;;;;53.75;34.25;;;;;;;;10457107;28;42927;-64
2024/04/14 02:59:13;;;;;;;;;52.25;28.75;;;;;;;;10454208;28;43078;-64
2024/04/14 03:04:17;;;;;;;;;52.25;32.00;;;;;;;;10435556;28;43001;-63
2024/04/14 03:09:22;;;;;;;;;51.25;33.50;;;;;;;;10451494;28;43212;-64
2024/04/14 03:14:25;;;;;;;;;51.50;31.00;;;;;;;;10455352;28;43353;-63
2024/04/14 03:19:29;;;;;;;;;48.00;30.25;;;;;;;;10449397;28;43041;-64
2024/04/14 03:24:33;;;;;;;;;54.00;32.25;;;;;;;;10458805;28;43009;-68
2024/04/14 03:29:38;;;;;;;;;53.25;33.75;;;;;;;;10458902;28;43252;-63
2024/04/14 03:34:43;;;;;;;;;52.00;34.00;;;;;;;;10453201;28;42954;-59
2024/04/14 03:39:46;;;;;;;;;50.25;32.75;;;;;;;;10453381;28;43022;-62
2024/04/14 03:44:51;;;;;;;;;51.50;32.00;;;;;;;;10456322;28;43099;-63
2024/04/14 03:49:55;;;;;;;;;53.25;31.75;;;;;;;;10453167;28;42911;-63
2024/04/14 03:55:00;;;;;;;;;53.75;29.25;;;;;;;;10469222;28;43060;-62
2024/04/14 04:00:04;;;;;;;;;52.50;34.50;;;;;;;;10450923;28;43088;-64
2024/04/14 04:05:16;;;;;;;;;51.25;33.00;;;;;;;;10454627;28;43462;-65
2024/04/14 04:10:21;;;;;;;;;46.50;31.25;;;;;;;;10466954;28;42922;-65
2024/04/14 04:15:24;;;;;;;;;53.25;35.00;;;;;;;;10493257;28;44100;-65
2024/04/14 04:20:28;;;;;;;;;46.00;29.00;;;;;;;;10474545;27;44527;-66
2024/04/14 04:25:32;;;;;;;;;42.00;22.50;;;;;;;;10534163;27;42971;-65
2024/04/14 04:30:37;;;;;;;;;43.75;28.00;;;;;;;;10495989;27;43427;-65
2024/04/14 04:35:50;;;;;;;;;44.25;21.00;;;;;;;;10476763;28;43641;-66
2024/04/14 04:40:53;;;;;;;;;42.00;26.25;;;;;;;;10493905;27;48600;-65
2024/04/14 04:45:57;;;;;;;;;46.75;26.25;;;;;;;;10494636;27;43006;-66
2024/04/14 04:51:01;;;;;;;;;49.00;29.00;;;;;;;;10500073;28;43939;-65
2024/04/14 04:56:05;;;;;;;;;45.00;28.50;;;;;;;;10494076;27;49385;-65
2024/04/14 05:01:10;;;;;;;;;46.25;29.50;;;;;;;;10494173;27;43746;-65
2024/04/14 05:06:13;;;;;;;;;45.00;25.50;;;;;;;;10461582;27;43539;-65
2024/04/14 05:11:18;;;;;;;;;44.00;24.00;;;;;;;;10511548;27;43566;-64
2024/04/14 05:16:23;;;;;;;;;43.00;25.75;;;;;;;;10507168;27;42988;-65
2024/04/14 05:21:27;;;;;;;;;42.50;26.75;;;;;;;;10503517;27;43780;-66
2024/04/14 05:26:31;;;;;;;;;35.75;21.75;;;;;;;;10500967;27;43024;-65
2024/04/14 05:31:34;;;;;;;;;42.00;25.50;;;;;;;;10503966;27;43441;-63
2024/04/14 05:36:37;;;;;;;;;45.75;25.75;;;;;;;;10501836;28;43053;-65
2024/04/14 05:41:42;;;;;;;;;42.25;22.00;;;;;;;;10492928;27;43808;-65
2024/04/14 05:46:45;;;;;;;;;39.75;22.75;;;;;;;;10483430;27;43061;-65
2024/04/14 05:51:50;;;;;;;;;41.50;23.50;;;;;;;;10495706;28;43508;-65
2024/04/14 05:56:54;;;;;;;;;41.00;17.75;;;;;;;;10500183;27;43490;-66
2024/04/14 06:01:58;;;;;;;;;33.75;18.50;;;;;;;;10479886;28;43134;-64
2024/04/14 06:07:01;;;;;;;;;33.25;19.50;;;;;;;;10488048;27;42956;-65
2024/04/14 06:12:07;;;;;;;;;34.25;18.25;;;;;;;;10498078;27;43034;-64
2024/04/14 06:17:11;;;;;;;;;37.25;18.50;;;;;;;;10489721;27;43585;-64
2024/04/14 06:22:14;;;;;;;;;32.75;18.75;;;;;;;;10493145;27;43561;-63
2024/04/14 06:27:17;;;;;;;;;28.75;14.75;;;;;;;;10501219;27;42952;-64
2024/04/14 06:32:21;;;;;;;;;37.00;17.75;;;;;;;;10499082;27;43924;-63
2024/04/14 06:37:25;;;;;;;;;37.25;19.25;;;;;;;;10494909;27;43461;-65
2024/04/14 06:42:29;;;;;;;;;43.00;21.00;;;;;;;;10501042;27;43039;-65
2024/04/14 06:47:33;;;;;;;;;37.00;19.00;;;;;;;;10480449;27;44683;-64
2024/04/14 06:52:36;;;;;;;;;45.50;27.50;;;;;;;;10491495;27;44782;-64
2024/04/14 06:57:40;;;;;;;;;42.50;23.00;;;;;;;;10495895;27;43260;-64
2024/04/14 07:02:44;;;;;;;;;47.50;27.25;;;;;;;;10481856;28;48562;-62
2024/04/14 07:07:48;;;;;;;;;43.75;25.50;;;;;;;;10499767;27;42962;-63
2024/04/14 07:12:53;;;;;;;;;44.75;26.00;;;;;;;;10443748;28;43113;-63
2024/04/14 07:17:57;;;;;;;;;43.50;24.25;;;;;;;;10441784;28;43033;-62
2024/04/14 07:23:02;;;;;;;;;44.50;25.25;;;;;;;;10427106;28;45376;-65
2024/04/14 07:28:06;;;;;;;;;39.75;20.25;;;;;;;;10452404;28;43470;-63
2024/04/14 07:33:10;;;;;;;;;43.00;24.50;;;;;;;;10438309;28;42969;-63
2024/04/14 07:38:14;;;;;;;;;42.00;26.50;;;;;;;;10446204;28;43584;-64
2024/04/14 07:43:18;;;;;;;;;46.75;27.75;;;;;;;;10441526;28;43130;-63
2024/04/14 07:48:22;;;;;;;;;43.75;25.50;;;;;;;;10453600;28;44529;-63
2024/04/14 07:53:26;;;;;;;;;44.00;26.00;;;;;;;;10451024;28;43145;-63
2024/04/14 07:58:29;;;;;;;;;41.00;23.75;;;;;;;;10449222;28;43155;-63
2024/04/14 08:03:33;;;;;;;;;42.25;28.25;;;;;;;;10449904;28;43658;-62
2024/04/14 08:08:38;;;;;;;;;42.75;27.50;;;;;;;;10448472;28;43494;-62
2024/04/14 08:13:43;;;;;;;;;40.50;21.50;;;;;;;;10481249;28;43243;-66
2024/04/14 08:18:46;;;;;;;;;42.25;21.50;;;;;;;;10493452;27;43631;-62
2024/04/14 08:23:50;;;;;;;;;41.25;24.75;;;;;;;;10489780;28;43470;-66
2024/04/14 08:28:54;;;;;;;;;45.25;23.75;;;;;;;;10496862;28;42924;-63
2024/04/14 08:33:58;;;;;;;;;42.25;24.25;;;;;;;;10469473;27;44389;-65
2024/04/14 08:39:02;;;;;;;;;40.25;20.50;;;;;;;;10477389;27;44558;-63
2024/04/14 08:44:07;;;;;;;;;38.25;22.50;;;;;;;;10493813;28;42961;-62
2024/04/14 08:49:11;;;;;;;;;37.50;20.00;;;;;;;;10494933;27;42931;-63
2024/04/14 08:54:15;;;;;;;;;42.00;24.25;;;;;;;;10487204;27;44116;-64
2024/04/14 08:59:21;;;;;;;;;47.75;27.50;;;;;;;;10495081;28;43002;-65
2024/04/14 09:04:25;;;;;;;;;44.25;23.25;;;;;;;;10494377;28;43015;-62
2024/04/14 09:09:29;;;;;;;;;37.50;19.50;;;;;;;;10493614;28;43486;-63
2024/04/14 09:14:34;;;;;;;;;42.00;22.25;;;;;;;;10490649;28;43701;-63
2024/04/14 09:19:40;;;;;;;;;47.50;24.25;;;;;;;;10489111;28;44363;-64
2024/04/14 09:24:44;;;;;;;;;35.00;19.75;;;;;;;;10490382;28;43938;-63
2024/04/14 09:29:48;;;;;;;;;36.25;19.50;;;;;;;;10492759;28;44570;-67
2024/04/14 09:34:52;;;;;;;;;41.00;25.25;;;;;;;;10496803;27;43825;-63
2024/04/14 09:39:56;;;;;;;;;39.50;22.50;;;;;;;;10485874;28;43022;-67
2024/04/14 09:45:02;;;;;;;;;42.25;25.50;;;;;;;;10492889;27;43832;-63
2024/04/14 09:50:08;;;;;;;;;38.00;20.50;;;;;;;;10487980;28;44072;-63
2024/04/14 09:55:11;;;;;;;;;41.00;22.50;;;;;;;;10495618;28;43734;-64
2024/04/14 10:00:16;;;;;;;;;43.25;25.75;;;;;;;;10481652;27;42986;-66
2024/04/14 10:05:20;;;;;;;;;43.00;22.75;;;;;;;;10496245;28;43041;-67
2024/04/14 10:10:24;;;;;;;;;39.25;21.75;;;;;;;;10478720;28;45346;-69
2024/04/14 10:15:28;;;;;;;;;44.75;26.50;;;;;;;;10452686;28;43921;-65
2024/04/14 10:20:40;;;;;;;;;42.00;23.75;;;;;;;;10450609;27;43790;-66
2024/04/14 10:25:50;;;;;;;;;36.50;21.25;;;;;;;;10453249;28;43167;-64
2024/04/14 10:31:00;;;;;;;;;39.50;22.75;;;;;;;;10452504;28;43131;-64
2024/04/14 10:36:05;;;;;;;;;40.50;24.25;;;;;;;;10450927;28;43627;-65
2024/04/14 10:41:16;;;;;;;;;41.50;21.00;;;;;;;;10448026;28;44084;-64
2024/04/14 10:46:21;;;;;;;;;38.50;22.25;;;;;;;;10451174;28;43135;-63
2024/04/14 10:51:25;;;;;;;;;36.25;20.25;;;;;;;;10445896;28;43944;-64
2024/04/14 10:56:29;;;;;;;;;34.75;21.00;;;;;;;;10445017;28;44552;-65
2024/04/14 11:01:34;;;;;;;;;47.50;26.00;;;;;;;;10455085;28;43035;-65
2024/04/14 11:06:37;;;;;;;;;44.25;27.25;;;;;;;;10452988;28;43269;-63
2024/04/14 11:11:44;;;;;;;;;42.75;25.00;;;;;;;;10422262;28;44368;-64
2024/04/14 11:16:49;;;;;;;;;41.75;27.50;;;;;;;;10436961;28;45377;-62
2024/04/14 11:21:52;;;;;;;;;44.00;24.75;;;;;;;;10452344;28;43021;-64
2024/04/14 11:26:57;;;;;;;;;40.25;22.00;;;;;;;;10450973;28;43937;-62
2024/04/14 11:32:27;;;;;;;;;44.50;24.50;;;;;;;;10424419;28;43975;-64
2024/04/14 11:37:30;;;;;;;;;40.25;23.75;;;;;;;;10447040;28;42943;-68
2024/04/14 11:42:34;;;;;;;;;43.25;26.00;;;;;;;;10429947;28;43203;-68
2024/04/14 11:47:37;;;;;;;;;42.25;24.50;;;;;;;;10434297;28;45394;-65
2024/04/14 11:52:41;;;;;;;;;45.75;23.25;;;;;;;;10449734;28;43174;-66
2024/04/14 11:57:45;;;;;;;;;36.00;22.25;;;;;;;;10430713;28;43824;-70
2024/04/14 12:02:49;;;;;;;;;40.25;25.75;;;;;;;;10434363;28;42893;-63
2024/04/14 12:07:54;;;;;;;;;38.50;20.00;;;;;;;;10465116;28;43028;-66
2024/04/14 12:12:58;;;;;;;;;41.00;24.75;;;;;;;;10429522;28;43056;-67
2024/04/14 12:18:01;;;;;;;;;37.75;23.00;;;;;;;;10450436;28;42966;-67
2024/04/14 12:23:05;;;;;;;;;38.75;21.00;;;;;;;;10448719;28;42930;-65
2024/04/14 12:28:10;;;;;;;;;39.00;20.50;;;;;;;;10450582;28;42999;-66
2024/04/14 12:33:14;;;;;;;;;36.75;22.50;;;;;;;;10450918;28;49175;-67
2024/04/14 12:38:18;;;;;;;;;34.50;17.75;;;;;;;;10451594;28;43349;-67
2024/04/14 12:43:22;;;;;;;;;40.00;20.75;;;;;;;;10451513;28;43723;-63
2024/04/14 12:48:26;;;;;;;;;37.25;18.00;;;;;;;;10452150;28;43578;-64
2024/04/14 12:53:30;;;;;;;;;37.50;17.25;;;;;;;;10451955;28;43008;-64
2024/04/14 12:58:34;;;;;;;;;37.25;21.75;;;;;;;;10425097;28;45359;-66
2024/04/14 13:03:38;;;;;;;;;42.50;23.25;;;;;;;;10450751;28;42968;-66
2024/04/14 13:08:43;;;;;;;;;38.50;19.00;;;;;;;;10453616;28;43093;-62
2024/04/14 13:13:47;;;;;;;;;38.50;20.25;;;;;;;;10419238;28;43801;-62
2024/04/14 13:18:50;;;;;;;;;37.00;18.50;;;;;;;;10437170;28;44689;-62
2024/04/14 13:23:54;;;;;;;;;37.50;20.50;;;;;;;;10449523;28;43571;-63
2024/04/14 13:28:57;;;;;;;;;42.25;23.50;;;;;;;;10437733;28;42912;-63
2024/04/14 13:34:01;;;;;;;;;35.00;16.75;;;;;;;;10458355;28;45108;-64
2024/04/14 13:39:06;;;;;;;;;40.25;23.75;;;;;;;;10441058;28;42984;-63
2024/04/14 13:44:09;;;;;;;;;34.75;17.75;;;;;;;;10459485;28;42987;-64
2024/04/14 13:49:13;;;;;;;;;32.75;19.50;;;;;;;;10458408;28;42988;-63
2024/04/14 13:54:18;;;;;;;;;34.50;20.75;;;;;;;;10458478;28;43662;-63
2024/04/14 13:59:22;;;;;;;;;32.75;17.25;;;;;;;;10440471;28;42955;-63
2024/04/14 14:04:26;;;;;;;;;34.75;18.50;;;;;;;;10454664;28;43003;-63
2024/04/14 14:09:31;;;;;;;;;33.00;17.00;;;;;;;;10460768;28;43599;-63
2024/04/14 14:14:35;;;;;;;;;45.25;22.75;;;;;;;;10492160;27;43769;-63
2024/04/14 14:19:39;;;;;;;;;32.50;17.50;;;;;;;;10485307;28;43659;-63
2024/04/14 14:24:43;;;;;;;;;35.50;16.25;;;;;;;;10497161;27;42967;-63
2024/04/14 14:29:49;;;;;;;;;31.25;17.25;;;;;;;;10498616;27;42987;-63
2024/04/14 14:40:16;;;;;;;;;33.25;17.00;;;;;;;;10495299;27;48376;-63
2024/04/14 14:45:20;;;;;;;;;43.00;19.25;;;;;;;;10490785;27;49176;-63
2024/04/14 14:50:24;;;;;;;;;39.25;20.75;;;;;;;;10479709;27;43245;-64
2024/04/14 14:55:29;;;;;;;;;31.50;16.25;;;;;;;;10501256;27;43876;-64
2024/04/14 15:00:32;;;;;;;;;35.50;19.00;;;;;;;;10496197;28;43725;-65
2024/04/14 15:05:37;;;;;;;;;32.75;17.50;;;;;;;;10492520;28;43105;-64
2024/04/14 15:10:47;;;;;;;;;36.25;19.00;;;;;;;;10494924;27;43476;-65
2024/04/14 15:15:55;;;;;;;;;38.50;19.50;;;;;;;;10495186;27;43252;-64
2024/04/14 15:20:58;;;;;;;;;39.50;22.75;;;;;;;;10488455;27;48652;-65
2024/04/14 15:26:03;;;;;;;;;35.75;23.00;;;;;;;;10499357;27;43029;-64
2024/04/14 15:31:08;;;;;;;;;38.00;19.50;;;;;;;;10497251;27;43771;-64
2024/04/14 15:36:12;;;;;;;;;31.25;17.00;;;;;;;;10504441;27;43170;-64
2024/04/14 15:41:17;;;;;;;;;33.75;20.00;;;;;;;;10497087;27;42974;-64
2024/04/14 15:46:21;;;;;;;;;44.50;19.75;;;;;;;;10501548;27;42954;-64
2024/04/14 15:51:25;;;;;;;;;38.50;24.00;;;;;;;;10502351;27;42979;-64
2024/04/14 15:56:30;;;;;;;;;39.50;18.00;;;;;;;;10504980;27;43358;-64
2024/04/14 16:01:34;;;;;;;;;38.50;21.00;;;;;;;;10491326;27;44052;-64
2024/04/14 16:06:40;;;;;;;;;35.00;18.25;;;;;;;;10498746;27;43147;-64
2024/04/14 16:11:44;;;;;;;;;37.25;20.50;;;;;;;;10493622;27;42970;-64
2024/04/14 16:16:48;;;;;;;;;34.75;17.75;;;;;;;;10498047;27;44570;-64
2024/04/14 16:21:52;;;;;;;;;38.00;19.75;;;;;;;;10498446;27;43585;-64
2024/04/14 16:26:56;;;;;;;;;36.25;19.25;;;;;;;;10496149;27;43738;-64
2024/04/14 16:32:00;;;;;;;;;37.50;19.75;;;;;;;;10498068;27;44096;-64
2024/04/14 16:37:04;;;;;;;;;35.50;18.25;;;;;;;;10499965;27;42950;-64
2024/04/14 16:42:08;;;;;;;;;41.50;19.25;;;;;;;;10496801;28;43970;-64
2024/04/14 16:47:12;;;;;;;;;39.50;17.75;;;;;;;;10506034;27;43209;-64
2024/04/14 16:52:17;;;;;;;;;36.25;15.75;;;;;;;;10494218;27;43030;-64
2024/04/14 16:57:20;;;;;;;;;37.50;19.50;;;;;;;;10496824;27;43076;-64
2024/04/14 17:02:23;;;;;;;;;35.25;15.50;;;;;;;;10495668;27;43042;-64
2024/04/14 17:07:29;;;;;;;;;39.50;18.50;;;;;;;;10485917;27;44024;-64
2024/04/14 17:12:32;;;;;;;;;38.00;22.00;;;;;;;;10474296;28;43740;-64
2024/04/14 17:17:35;;;;;;;;;37.50;16.75;;;;;;;;10458332;28;43247;-64
2024/04/14 17:22:40;;;;;;;;;32.50;17.25;;;;;;;;10457602;28;43588;-64
2024/04/14 17:27:43;;;;;;;;;34.25;17.25;;;;;;;;10462349;28;43786;-63
2024/04/14 17:32:47;;;;;;;;;35.00;18.25;;;;;;;;10465297;28;43050;-63
2024/04/14 17:37:51;;;;;;;;;34.50;19.00;;;;;;;;10473458;28;43681;-63
2024/04/14 17:42:55;;;;;;;;;33.00;15.50;;;;;;;;10464190;28;42978;-63
2024/04/14 17:48:02;;;;;;;;;33.50;18.00;;;;;;;;10465074;28;43353;-63
2024/04/14 17:53:06;;;;;;;;;37.75;18.50;;;;;;;;10456084;28;43449;-63
2024/04/14 17:58:10;;;;;;;;;42.75;19.25;;;;;;;;10454720;28;42931;-63
2024/04/14 18:03:15;;;;;;;;;34.50;17.75;;;;;;;;10454956;28;43193;-63
2024/04/14 18:08:20;;;;;;;;;32.25;15.00;;;;;;;;10457324;28;43572;-63
2024/04/14 18:13:24;;;;;;;;;31.50;17.00;;;;;;;;10491693;27;42988;-63
2024/04/14 18:18:28;;;;;;;;;42.50;18.75;;;;;;;;10462742;28;43774;-63
2024/04/14 18:23:32;;;;;;;;;31.25;16.25;;;;;;;;10463054;28;43126;-62
2024/04/14 18:28:36;;;;;;;;;31.75;17.00;;;;;;;;10472496;27;42993;-63
2024/04/14 18:33:40;;;;;;;;;31.75;14.75;;;;;;;;10473225;27;43614;-63
2024/04/14 18:38:44;;;;;;;;;32.50;15.00;;;;;;;;10473090;27;44289;-63
2024/04/14 18:43:47;;;;;;;;;34.50;18.75;;;;;;;;10452090;28;42974;-63
2024/04/14 18:48:51;;;;;;;;;36.25;15.50;;;;;;;;10456946;28;43641;-63
2024/04/14 18:53:55;;;;;;;;;33.50;16.75;;;;;;;;10458040;28;43646;-63
2024/04/14 18:58:59;;;;;;;;;35.50;14.75;;;;;;;;10457403;28;43016;-63
2024/04/14 19:04:03;;;;;;;;;32.25;18.75;;;;;;;;10456323;28;43062;-63
2024/04/14 19:09:08;;;;;;;;;36.00;18.00;;;;;;;;10457147;28;43658;-63
2024/04/14 19:14:11;;;;;;;;;32.00;12.75;;;;;;;;10451818;28;43733;-63
2024/04/14 19:19:15;;;;;;;;;30.75;15.00;;;;;;;;10455742;28;43772;-63
2024/04/14 19:24:20;;;;;;;;;38.75;19.75;;;;;;;;10455411;28;43646;-63
2024/04/14 19:29:23;;;;;;;;;34.00;14.00;;;;;;;;10455325;28;44111;-63
2024/04/14 19:34:27;;;;;;;;;34.50;17.75;;;;;;;;10455138;28;43470;-63
2024/04/14 19:39:31;;;;;;;;;34.75;16.00;;;;;;;;10456084;28;43001;-63
2024/04/14 19:44:34;;;;;;;;;32.25;17.00;;;;;;;;10455325;28;43003;-63
2024/04/14 19:49:38;;;;;;;;;28.00;11.50;;;;;;;;10455759;28;43090;-63
2024/04/14 19:54:47;;;;;;;;;30.75;13.75;;;;;;;;10455225;28;43768;-63
2024/04/14 19:59:52;;;;;;;;;34.50;17.25;;;;;;;;10456276;28;43177;-63
2024/04/14 20:04:56;;;;;;;;;29.00;13.50;;;;;;;;10456737;28;43004;-63
2024/04/14 20:10:00;;;;;;;;;31.75;16.50;;;;;;;;10454521;28;43350;-63
2024/04/14 20:15:04;;;;;;;;;35.00;14.50;;;;;;;;10494884;28;43140;-64
2024/04/14 20:20:08;;;;;;;;;29.25;13.00;;;;;;;;10504753;28;43066;-64
2024/04/14 20:25:12;;;;;;;;;32.00;13.25;;;;;;;;10496170;28;43489;-64
2024/04/14 20:30:16;;;;;;;;;31.50;14.00;;;;;;;;10479491;28;42945;-63
2024/04/14 20:35:20;;;;;;;;;30.25;13.00;;;;;;;;10496788;28;49768;-63
2024/04/14 20:40:23;;;;;;;;;27.25;12.00;;;;;;;;10494524;28;43633;-63
2024/04/14 20:45:27;;;;;;;;;30.75;13.25;;;;;;;;10497151;28;43673;-64
2024/04/14 20:50:32;;;;;;;;;33.25;12.75;;;;;;;;10495534;28;43728;-63
2024/04/14 20:55:36;;;;;;;;;32.50;14.50;;;;;;;;10494995;28;43069;-63
2024/04/14 21:00:39;;;;;;;;;31.00;11.75;;;;;;;;10496373;28;43192;-64
2024/04/14 21:05:45;;;;;;;;;25.75;11.50;;;;;;;;10495192;28;43685;-64
2024/04/14 21:10:58;;;;;;;;;25.50;13.25;;;;;;;;10494652;27;43581;-64
2024/04/14 21:16:08;;;;;;;;;26.75;8.50;;;;;;;;10453769;28;43862;-64
2024/04/14 21:21:12;;;;;;;;;28.00;13.00;;;;;;;;10458502;28;43726;-64
2024/04/14 21:26:16;;;;;;;;;29.75;13.50;;;;;;;;10459139;28;42986;-64
2024/04/14 21:31:20;;;;;;;;;30.00;9.25;;;;;;;;10457058;28;42982;-63
2024/04/14 21:36:23;;;;;;;;;28.50;11.00;;;;;;;;10454271;28;43933;-63
2024/04/14 21:41:27;;;;;;;;;28.50;9.50;;;;;;;;10449784;28;43032;-63
2024/04/14 21:46:31;;;;;;;;;25.00;11.00;;;;;;;;10450771;28;43902;-64
2024/04/14 21:51:35;;;;;;;;;29.00;10.75;;;;;;;;10455886;28;43031;-62
2024/04/14 21:56:39;;;;;;;;;40.00;10.50;;;;;;;;10463262;28;49080;-60
2024/04/14 22:01:45;;;;;;;;;31.75;13.50;;;;;;;;10467603;28;43236;-66
2024/04/14 22:06:50;;;;;;;;;31.00;10.50;;;;;;;;10466406;28;44389;-66
2024/04/14 22:11:53;;;;;;;;;28.50;9.00;;;;;;;;10478408;27;44293;-65
2024/04/14 22:16:57;;;;;;;;;30.25;7.00;;;;;;;;10499904;27;43661;-62
2024/04/14 22:22:01;;;;;;;;;27.50;8.00;;;;;;;;10500043;27;43846;-61
2024/04/14 22:27:04;;;;;;;;;31.50;8.50;;;;;;;;10499021;28;43153;-64
2024/04/14 22:32:08;;;;;;;;;28.00;7.00;;;;;;;;10474113;28;43064;-63
2024/04/14 22:37:11;;;;;;;;;25.75;6.50;;;;;;;;10499354;27;43192;-64
2024/04/14 22:42:15;;;;;;;;;25.25;6.50;;;;;;;;10499612;28;42983;-67
2024/04/14 22:47:18;;;;;;;;;28.25;5.25;;;;;;;;10492429;27;43839;-63
2024/04/14 22:52:23;;;;;;;;;29.75;7.75;;;;;;;;10501486;28;42944;-60
2024/04/14 22:57:28;;;;;;;;;20.50;5.00;;;;;;;;10499830;28;43792;-61
2024/04/14 23:02:31;;;;;;;;;25.75;5.00;;;;;;;;10482016;27;43591;-60
2024/04/14 23:07:36;;;;;;;;;34.75;8.25;;;;;;;;10496515;27;43566;-61
2024/04/14 23:12:41;;;;;;;;;26.00;5.50;;;;;;;;10477883;28;42970;-61
2024/04/14 23:17:50;;;;;;;;;30.50;7.25;;;;;;;;10462149;28;43475;-61
2024/04/14 23:22:54;;;;;;;;;26.25;3.75;;;;;;;;10455915;28;42949;-63
2024/04/14 23:27:58;;;;;;;;;34.25;5.25;;;;;;;;10452307;28;43021;-63
2024/04/14 23:33:02;;;;;;;;;34.25;5.75;;;;;;;;10420766;28;44117;-64
2024/04/14 23:38:05;;;;;;;;;29.25;7.50;;;;;;;;10442281;28;42987;-61
2024/04/14 23:43:09;;;;;;;;;37.75;7.25;;;;;;;;10437807;28;43165;-63
2024/04/14 23:48:13;;;;;;;;;29.75;8.00;;;;;;;;10438694;28;43056;-63
2024/04/14 23:53:17;;;;;;;;;27.75;4.50;;;;;;;;10454259;28;43766;-66
2024/04/14 23:58:21;;;;;;;;;34.25;8.00;;;;;;;;10454133;28;43632;-64
